Time;durP1;ratioP1;P1;durP2;ratioP2;P2;SDS_P1;SDS_P2;PMS_P1;PMS_P2;Temp;Humidity;BMP_temperature;BMP_pressure;BME280_temperature;BME280_humidity;BME280_pressure;Samples;Min_cycle;Max_cycle;Signal;HPM_P1;HPM_P2
2023/03/02 00:01:57;;;;;;;188.47;37.67;;;;;;;1.09;100.00;147721.88;5023116;28;20036;-71
2023/03/02 00:04:32;;;;;;;151.23;32.67;;;;;;;1.16;100.00;147739.84;5031824;28;20013;-71
2023/03/02 00:07:01;;;;;;;151.97;37.10;;;;;;;1.20;100.00;147747.53;5027638;28;20116;-71
2023/03/02 00:09:27;;;;;;;177.63;38.00;;;;;;;1.19;100.00;147746.25;5031754;28;20025;-71
2023/03/02 00:11:53;;;;;;;185.13;39.53;;;;;;;1.21;100.00;147750.09;5025000;28;20469;-70
2023/03/02 00:14:18;;;;;;;189.53;39.30;;;;;;;1.25;100.00;147761.69;5026834;28;20091;-71
2023/03/02 00:16:44;;;;;;;183.80;41.60;;;;;;;1.28;100.00;147768.09;5025904;28;20037;-71
2023/03/02 00:19:09;;;;;;;133.87;32.57;;;;;;;1.30;100.00;147773.22;5036197;28;20036;-71
2023/03/02 00:21:34;;;;;;;165.17;37.90;;;;;;;1.26;100.00;147762.97;5026102;28;20433;-71
2023/03/02 00:24:00;;;;;;;123.50;32.20;;;;;;;1.35;100.00;147787.38;5029920;28;20507;-71
2023/03/02 00:26:25;;;;;;;166.40;37.13;;;;;;;1.30;100.00;147773.22;5027441;28;20040;-71
2023/03/02 00:28:50;;;;;;;143.93;34.33;;;;;;;1.36;100.00;147788.66;5027738;28;20033;-71
2023/03/02 00:31:16;;;;;;;138.30;32.93;;;;;;;1.36;100.00;147788.66;5022652;28;20406;-71
2023/03/02 00:33:41;;;;;;;139.20;34.50;;;;;;;1.40;100.00;147798.94;5025368;28;20040;-71
2023/03/02 00:36:17;;;;;;;152.93;37.30;;;;;;;1.42;100.00;147804.06;5031416;28;20036;-71
2023/03/02 00:38:43;;;;;;;159.27;36.70;;;;;;;1.45;100.00;147813.09;5027603;28;20397;-71
2023/03/02 00:41:13;;;;;;;163.20;37.17;;;;;;;1.46;100.00;147814.38;5028854;28;20029;-71
2023/03/02 00:43:39;;;;;;;129.40;31.27;;;;;;;1.45;100.00;147811.75;5027800;28;20392;-71
2023/03/02 00:46:12;;;;;;;141.50;35.67;;;;;;;1.46;100.00;147814.38;5027236;28;20026;-71
2023/03/02 00:48:38;;;;;;;80.93;25.97;;;;;;;1.48;100.00;147819.50;5029188;28;20091;-71
2023/03/02 00:51:04;;;;;;;87.53;24.00;;;;;;;1.49;100.00;147822.06;5027131;28;20025;-71
2023/03/02 00:53:30;;;;;;;156.07;38.70;;;;;;;1.49;100.00;147822.06;5020949;28;20253;-71
2023/03/02 00:55:56;;;;;;;173.27;41.33;;;;;;;1.51;100.00;147827.19;5026531;28;20109;-71
2023/03/02 00:58:22;;;;;;;157.10;40.20;;;;;;;1.52;100.00;147828.47;5024274;28;20117;-71
2023/03/02 01:00:48;;;;;;;172.37;38.80;;;;;;;1.51;100.00;147827.19;5020609;28;20034;-71
2023/03/02 01:03:13;;;;;;;166.97;38.97;;;;;;;1.48;100.00;147819.50;5028612;28;20031;-71
2023/03/02 01:05:38;;;;;;;139.77;36.20;;;;;;;1.50;100.00;147823.34;5026048;28;20428;-71
2023/03/02 01:08:04;;;;;;;111.83;31.50;;;;;;;1.42;100.00;147804.06;5025668;28;20483;-71
2023/03/02 01:10:33;;;;;;;109.07;32.10;;;;;;;1.37;100.00;147792.53;5030805;28;20025;-71
2023/03/02 01:12:59;;;;;;;138.30;35.43;;;;;;;1.34;100.00;147783.53;5023721;28;20025;-70
2023/03/02 01:15:24;;;;;;;118.03;33.13;;;;;;;1.38;100.00;147795.09;5026015;28;20044;-70
2023/03/02 01:17:50;;;;;;;116.43;33.43;;;;;;;1.36;100.00;147788.66;5027725;28;20024;-71
2023/03/02 01:20:16;;;;;;;109.40;31.60;;;;;;;1.39;100.00;147796.38;5027975;28;20107;-70
2023/03/02 01:22:43;;;;;;;93.80;26.97;;;;;;;1.38;100.00;147795.09;5038305;28;20060;-70
2023/03/02 01:25:09;;;;;;;120.97;31.40;;;;;;;1.36;100.00;147788.66;5030303;28;20025;-70
2023/03/02 01:27:35;;;;;;;117.00;32.57;;;;;;;1.38;100.00;147793.81;5025659;28;20029;-70
2023/03/02 01:30:00;;;;;;;130.60;31.90;;;;;;;1.39;100.00;147796.38;5032619;28;20029;-70
2023/03/02 01:32:26;;;;;;;182.80;40.37;;;;;;;1.36;100.00;147788.66;5022148;28;20717;-71
2023/03/02 01:34:51;;;;;;;107.37;30.73;;;;;;;1.38;100.00;147793.81;5029069;28;20037;-70
2023/03/02 01:37:17;;;;;;;132.67;33.33;;;;;;;1.34;100.00;147783.53;5024110;28;20065;-70
2023/03/02 01:39:42;;;;;;;168.27;37.03;;;;;;;1.31;100.00;147775.78;5029775;28;20472;-71
2023/03/02 01:42:07;;;;;;;239.53;41.37;;;;;;;1.26;100.00;147762.97;5026127;28;20079;-70
2023/03/02 01:45:00;;;;;;;104.70;27.47;;;;;;;1.29;100.00;147771.94;5027864;28;20496;-70
2023/03/02 01:47:32;;;;;;;254.77;39.73;;;;;;;1.28;100.00;147768.09;5022911;28;20053;-70
2023/03/02 01:50:05;;;;;;;194.97;37.03;;;;;;;1.20;100.00;147747.53;5024016;28;20033;-70
2023/03/02 01:52:33;;;;;;;223.13;36.10;;;;;;;1.24;100.00;147757.84;5025104;28;20089;-70
2023/03/02 01:55:02;;;;;;;383.13;47.63;;;;;;;1.18;100.00;147743.69;5025697;28;20022;-70
2023/03/02 01:57:33;;;;;;;332.57;45.03;;;;;;;1.17;100.00;147742.41;5028244;28;20029;-70
2023/03/02 02:00:07;;;;;;;320.60;44.37;;;;;;;1.22;100.00;147752.72;5029784;28;20026;-71
2023/03/02 02:02:35;;;;;;;349.10;43.60;;;;;;;1.23;100.00;147756.56;5025203;28;20446;-70
2023/03/02 02:05:01;;;;;;;265.50;40.33;;;;;;;1.21;100.00;147750.09;5079509;22;20043;-68
2023/03/02 02:07:27;;;;;;;279.30;38.27;;;;;;;1.21;100.00;147751.38;5052498;28;20033;-69
2023/03/02 02:09:55;;;;;;;335.80;44.77;;;;;;;1.21;100.00;147750.09;5054173;28;20039;-68
2023/03/02 02:12:22;;;;;;;476.33;46.33;;;;;;;1.17;100.00;147741.13;5052269;28;20499;-68
2023/03/02 02:14:48;;;;;;;352.00;42.60;;;;;;;1.15;100.00;147737.28;5050804;28;20032;-69
2023/03/02 02:17:16;;;;;;;334.27;42.83;;;;;;;1.13;100.00;147732.16;5051876;28;20029;-68
2023/03/02 02:19:41;;;;;;;473.57;49.97;;;;;;;1.13;100.00;147730.88;5051452;28;20037;-68
2023/03/02 02:22:09;;;;;;;363.50;45.23;;;;;;;1.13;100.00;147730.88;5051691;28;20040;-69
2023/03/02 02:24:44;;;;;;;302.10;40.27;;;;;;;1.12;100.00;147729.56;5052446;28;20040;-69
2023/03/02 02:27:11;;;;;;;515.70;49.13;;;;;;;1.13;100.00;147732.16;5050575;28;20040;-68
2023/03/02 02:29:44;;;;;;;243.70;39.13;;;;;;;1.17;100.00;147741.13;5052634;28;20377;-68
2023/03/02 02:32:15;;;;;;;365.00;45.57;;;;;;;1.09;100.00;147721.88;5053968;28;20032;-69
2023/03/02 02:34:47;;;;;;;445.20;49.80;;;;;;;1.09;100.00;147721.88;5053312;28;20029;-69
2023/03/02 02:37:21;;;;;;;240.97;41.77;;;;;;;1.12;100.00;147729.56;5049979;28;20055;-69
2023/03/02 02:39:48;;;;;;;210.20;37.70;;;;;;;1.09;100.00;147721.88;5051853;28;20115;-69
2023/03/02 02:42:26;;;;;;;275.87;41.17;;;;;;;1.09;100.00;147721.88;5052217;28;20043;-69
2023/03/02 02:44:56;;;;;;;219.03;41.87;;;;;;;1.08;100.00;147718.00;5052175;28;20476;-68
2023/03/02 02:47:22;;;;;;;391.13;46.73;;;;;;;1.07;100.00;147716.72;5052231;28;20037;-69
2023/03/02 02:49:50;;;;;;;326.07;43.17;;;;;;;1.11;100.00;147727.00;5052676;28;20036;-69
2023/03/02 02:52:19;;;;;;;222.77;38.87;;;;;;;1.07;100.00;147715.44;5051699;28;20029;-69
2023/03/02 02:54:48;;;;;;;179.37;38.40;;;;;;;1.03;100.00;147706.44;5051543;28;20036;-69
2023/03/02 02:57:16;;;;;;;178.50;36.07;;;;;;;1.02;100.00;147702.59;5051691;28;20058;-69
2023/03/02 03:00:03;;;;;;;215.50;40.20;;;;;;;0.98;100.00;147692.34;5055291;28;20041;-68
2023/03/02 03:02:34;;;;;;;256.03;41.30;;;;;;;0.96;100.00;147688.44;5051700;28;20119;-68
2023/03/02 03:05:02;;;;;;;217.32;39.60;;;;;;;0.95;100.00;147684.59;5020980;28;20040;-68
2023/03/02 03:07:29;;;;;;;323.90;43.10;;;;;;;0.92;100.00;147676.91;5027190;28;20504;-69
2023/03/02 03:10:24;;;;;;;355.10;42.90;;;;;;;0.87;100.00;147665.38;5020010;28;20723;-68
2023/03/02 03:12:50;;;;;;;320.53;42.80;;;;;;;0.82;100.00;147652.50;5019827;28;20040;-69
2023/03/02 03:15:16;;;;;;;253.47;40.97;;;;;;;0.81;100.00;147649.94;5023752;28;20030;-68
2023/03/02 03:17:52;;;;;;;336.60;44.37;;;;;;;0.80;100.00;147647.38;5012359;28;20362;-69
2023/03/02 03:20:19;;;;;;;242.87;40.60;;;;;;;0.81;100.00;147651.22;5018526;28;20508;-69
2023/03/02 03:22:44;;;;;;;227.70;34.40;;;;;;;0.82;100.00;147652.50;5020963;28;20044;-69
2023/03/02 03:25:14;;;;;;;272.37;39.20;;;;;;;0.80;100.00;147647.38;5019643;28;20026;-68
2023/03/02 03:27:41;;;;;;;335.13;42.93;;;;;;;0.79;100.00;147644.81;5022835;28;20029;-69
2023/03/02 03:30:08;;;;;;;280.33;42.13;;;;;;;0.78;100.00;147642.25;5030205;28;20437;-68
2023/03/02 03:32:34;;;;;;;344.93;42.63;;;;;;;0.78;100.00;147642.25;5030083;28;20033;-69
2023/03/02 03:34:59;;;;;;;267.57;39.77;;;;;;;0.80;100.00;147647.38;5018796;28;20020;-69
2023/03/02 03:37:25;;;;;;;367.00;44.10;;;;;;;0.73;100.00;147630.72;5032519;28;20033;-69
2023/03/02 03:39:50;;;;;;;323.57;41.60;;;;;;;0.73;100.00;147629.44;5013041;28;20104;-69
2023/03/02 03:42:16;;;;;;;149.80;30.00;;;;;;;0.72;100.00;147626.81;5035158;28;20029;-69
2023/03/02 03:44:42;;;;;;;252.40;36.13;;;;;;;0.72;100.00;147626.81;5015640;28;20033;-68
2023/03/02 03:47:07;;;;;;;494.53;50.63;;;;;;;0.71;100.00;147624.25;5020144;28;20021;-69
2023/03/02 03:49:32;;;;;;;214.07;37.73;;;;;;;0.72;100.00;147626.81;5027035;28;20020;-63
2023/03/02 03:51:58;;;;;;;340.20;43.33;;;;;;;0.72;100.00;147628.09;5025477;28;20034;-64
2023/03/02 03:54:23;;;;;;;353.03;43.80;;;;;;;0.74;100.00;147633.28;5014705;28;20503;-63
2023/03/02 03:56:49;;;;;;;48.17;14.30;;;;;;;0.66;100.00;147611.44;5032125;28;20376;-63
2023/03/02 03:59:19;;;;;;;251.10;35.90;;;;;;;0.57;100.00;147590.88;5024949;28;20018;-63
2023/03/02 04:01:53;;;;;;;254.17;35.63;;;;;;;0.53;100.00;147580.63;5020776;28;20538;-63
2023/03/02 04:04:25;;;;;;;266.70;37.77;;;;;;;0.56;100.00;147588.31;5028580;28;20026;-63
2023/03/02 04:06:52;;;;;;;192.07;30.83;;;;;;;0.57;100.00;147590.88;5027481;28;20144;-64
2023/03/02 04:09:18;;;;;;;297.13;40.03;;;;;;;0.57;100.00;147590.88;5030839;28;20029;-62
2023/03/02 04:11:45;;;;;;;260.90;38.23;;;;;;;0.59;100.00;147596.00;5029201;28;20040;-63
2023/03/02 04:14:12;;;;;;;371.90;44.17;;;;;;;0.59;100.00;147596.00;5018048;28;20544;-63
2023/03/02 04:16:38;;;;;;;375.53;42.90;;;;;;;0.63;100.00;147603.75;5021423;28;20041;-64
2023/03/02 04:19:09;;;;;;;295.73;38.83;;;;;;;0.66;100.00;147611.44;5016612;28;20030;-63
2023/03/02 04:21:40;;;;;;;314.10;39.15;;;;;;;0.67;100.00;147614.00;5019109;28;20026;-64
2023/03/02 04:24:07;;;;;;;252.20;36.28;;;;;;;0.64;100.00;147607.59;5023586;28;20077;-63
2023/03/02 04:26:35;;;;;;;173.97;35.60;;;;;;;0.69;100.00;147619.13;5014313;28;20029;-63
2023/03/02 04:29:00;;;;;;;189.07;34.33;;;;;;;0.65;100.00;147608.88;5019638;28;20036;-63
2023/03/02 04:31:25;;;;;;;248.33;38.27;;;;;;;0.58;100.00;147593.44;5032355;28;20357;-64
2023/03/02 04:33:51;;;;;;;120.20;28.63;;;;;;;0.63;100.00;147603.75;5030014;28;20621;-63
2023/03/02 04:36:18;;;;;;;237.27;38.27;;;;;;;0.59;100.00;147596.00;5026790;28;20075;-63
2023/03/02 04:38:44;;;;;;;246.33;37.07;;;;;;;0.59;100.00;147596.00;5026502;28;20040;-63
2023/03/02 04:41:09;;;;;;;359.27;42.47;;;;;;;0.62;100.00;147601.19;5026279;28;20105;-63
2023/03/02 04:43:35;;;;;;;166.20;30.40;;;;;;;0.61;100.00;147599.91;5026541;28;20069;-63
2023/03/02 04:46:00;;;;;;;229.10;38.30;;;;;;;0.62;100.00;147601.19;5030121;28;20104;-65
2023/03/02 04:48:26;;;;;;;177.10;31.07;;;;;;;0.60;100.00;147597.28;5029470;28;20358;-64
2023/03/02 04:50:51;;;;;;;132.03;27.77;;;;;;;0.49;100.00;147570.38;5027386;28;20029;-64
2023/03/02 04:53:17;;;;;;;180.60;34.23;;;;;;;0.42;100.00;147552.38;5020114;28;20038;-62
2023/03/02 04:55:42;;;;;;;225.73;35.43;;;;;;;0.41;100.00;147549.81;5029384;28;20370;-63
2023/03/02 04:58:08;;;;;;;104.03;26.80;;;;;;;0.38;100.00;147542.13;5021632;28;20064;-64
2023/03/02 05:00:34;;;;;;;90.87;22.33;;;;;;;0.34;100.00;147531.84;5018443;28;20043;-63
2023/03/02 05:03:02;;;;;;;200.83;35.27;;;;;;;0.33;100.00;147529.28;5024647;28;20535;-63
2023/03/02 05:05:29;;;;;;;200.43;36.73;;;;;;;0.34;100.00;147531.84;5015082;28;20072;-63
2023/03/02 05:07:57;;;;;;;185.20;33.67;;;;;;;0.35;100.00;147534.41;5018878;28;20406;-63
2023/03/02 05:10:23;;;;;;;191.83;34.43;;;;;;;0.39;100.00;147543.41;5024516;28;20474;-63
2023/03/02 05:12:57;;;;;;;104.57;24.63;;;;;;;0.33;100.00;147529.28;5028694;28;20078;-64
2023/03/02 05:15:25;;;;;;;116.67;23.63;;;;;;;0.32;100.00;147525.44;5024115;28;20091;-63
2023/03/02 05:17:51;;;;;;;95.93;24.47;;;;;;;0.29;100.00;147520.31;5028724;28;20706;-62
2023/03/02 05:20:18;;;;;;;137.40;29.27;;;;;;;0.26;100.00;147511.34;5019847;28;20049;-63
2023/03/02 05:22:44;;;;;;;184.03;32.77;;;;;;;0.27;100.00;147513.91;5015039;28;20476;-63
2023/03/02 05:25:09;;;;;;;180.80;32.60;;;;;;;0.27;100.00;147515.19;5018219;28;20108;-64
2023/03/02 05:27:35;;;;;;;281.80;37.43;;;;;;;0.29;100.00;147519.03;5026700;28;20384;-63
2023/03/02 05:30:03;;;;;;;268.50;38.67;;;;;;;0.23;100.00;147504.88;5030079;28;20157;-63
2023/03/02 05:32:28;;;;;;;231.17;37.27;;;;;;;0.27;100.00;147513.91;5018668;28;20017;-63
2023/03/02 05:34:53;;;;;;;225.03;36.77;;;;;;;0.23;100.00;147504.88;5026503;28;20477;-63
2023/03/02 05:37:19;;;;;;;174.17;31.63;;;;;;;0.20;100.00;147495.91;5013790;28;20109;-63
2023/03/02 05:39:44;;;;;;;201.17;31.83;;;;;;;0.13;100.00;147477.97;5022978;28;20265;-63
2023/03/02 05:42:09;;;;;;;189.90;31.67;;;;;;;0.17;100.00;147488.22;5029128;28;20056;-64
2023/03/02 05:44:35;;;;;;;163.20;32.13;;;;;;;0.16;100.00;147485.66;5028782;28;20030;-63
2023/03/02 05:47:00;;;;;;;109.70;26.67;;;;;;;0.12;100.00;147476.69;5026280;28;20033;-64
2023/03/02 05:49:26;;;;;;;157.30;32.17;;;;;;;0.13;100.00;147477.97;5021053;28;20464;-63
2023/03/02 05:51:51;;;;;;;161.73;34.33;;;;;;;0.09;100.00;147467.69;5029649;28;20018;-63
2023/03/02 05:54:16;;;;;;;153.20;31.30;;;;;;;0.07;100.00;147463.84;5027809;28;20068;-63
2023/03/02 05:56:42;;;;;;;111.87;26.60;;;;;;;-0.02;100.00;147442.00;5023104;28;20025;-64
2023/03/02 05:59:07;;;;;;;135.97;26.83;;;;;;;-0.05;100.00;147434.31;5024883;28;20033;-62
2023/03/02 06:01:34;;;;;;;119.30;22.30;;;;;;;-0.06;100.00;147430.47;5024761;28;20579;-63
2023/03/02 06:03:59;;;;;;;84.90;20.50;;;;;;;-0.08;100.00;147426.66;5028588;28;20029;-63
2023/03/02 06:06:24;;;;;;;152.43;28.83;;;;;;;-0.06;100.00;147431.75;5029212;28;20025;-63
2023/03/02 06:08:50;;;;;;;132.87;28.00;;;;;;;-0.03;100.00;147439.44;5019109;28;20029;-63
2023/03/02 06:11:15;;;;;;;250.63;34.50;;;;;;;-0.02;100.00;147442.00;5015091;28;20469;-63
2023/03/02 06:13:41;;;;;;;112.23;26.17;;;;;;;0.02;100.00;147449.75;5019937;28;20027;-63
2023/03/02 06:16:07;;;;;;;68.53;17.87;;;;;;;0.02;100.00;147449.75;5025733;28;20385;-64
2023/03/02 06:18:33;;;;;;;199.53;31.07;;;;;;;0.02;100.00;147449.75;5028278;28;20461;-63
2023/03/02 06:20:59;;;;;;;135.73;27.70;;;;;;;0.03;100.00;147453.59;5020817;28;20104;-64
2023/03/02 06:23:24;;;;;;;156.80;29.30;;;;;;;0.02;100.00;147451.03;5025607;28;20022;-64
2023/03/02 06:25:49;;;;;;;144.77;31.90;;;;;;;0.02;100.00;147449.75;5020848;28;20033;-63
2023/03/02 06:28:18;;;;;;;152.57;33.50;;;;;;;0.04;100.00;147454.88;5016427;28;20018;-64
2023/03/02 06:30:43;;;;;;;208.57;33.43;;;;;;;0.07;100.00;147462.56;5019864;28;20025;-63
2023/03/02 06:33:08;;;;;;;124.57;28.43;;;;;;;0.06;100.00;147460.00;5020871;28;20106;-63
2023/03/02 06:35:34;;;;;;;154.40;31.13;;;;;;;0.06;100.00;147460.00;5029042;28;20029;-63
2023/03/02 06:37:59;;;;;;;125.07;27.73;;;;;;;0.12;100.00;147475.38;5016943;28;20025;-64
2023/03/02 06:40:25;;;;;;;125.47;30.50;;;;;;;0.07;100.00;147462.56;5026137;28;20124;-63
2023/03/02 06:42:50;;;;;;;199.47;32.03;;;;;;;0.08;100.00;147466.41;5011394;28;20041;-64
2023/03/02 06:45:15;;;;;;;176.63;33.30;;;;;;;0.03;100.00;147452.31;5013143;28;20033;-63
2023/03/02 06:47:41;;;;;;;206.63;33.63;;;;;;;0.08;100.00;147465.13;5029311;28;20045;-64
2023/03/02 06:50:08;;;;;;;121.73;27.73;;;;;;;0.09;100.00;147467.69;5018909;28;20018;-63
2023/03/02 06:52:34;;;;;;;108.93;27.80;;;;;;;0.07;100.00;147462.56;5016888;28;20048;-65
2023/03/02 06:54:59;;;;;;;146.27;28.37;;;;;;;0.09;100.00;147467.69;5032367;28;20048;-64
2023/03/02 06:57:32;;;;;;;72.27;20.13;;;;;;;0.11;100.00;147472.81;5030123;28;20428;-63
2023/03/02 06:59:57;;;;;;;55.53;15.83;;;;;;;0.05;100.00;147457.44;5023941;28;20025;-65
2023/03/02 07:02:23;;;;;;;110.50;26.17;;;;;;;0.04;100.00;147454.88;5031432;28;20029;-63
2023/03/02 07:04:49;;;;;;;138.93;25.87;;;;;;;0.03;100.00;147452.31;5031993;28;20116;-63
2023/03/02 07:07:14;;;;;;;157.77;26.07;;;;;;;-0.02;100.00;147440.72;5031634;28;20037;-63
2023/03/02 07:09:39;;;;;;;156.50;28.03;;;;;;;0.08;100.00;147465.13;5035047;28;20037;-63
2023/03/02 07:12:05;;;;;;;56.87;14.40;;;;;;;0.11;100.00;147474.09;5021871;28;20527;-63
2023/03/02 07:14:30;;;;;;;90.10;22.13;;;;;;;0.09;100.00;147467.69;5022258;28;20093;-63
2023/03/02 07:16:56;;;;;;;82.63;21.53;;;;;;;0.12;100.00;147476.69;5022705;28;20059;-63
2023/03/02 07:19:21;;;;;;;144.40;26.30;;;;;;;0.10;100.00;147471.53;5033128;28;20029;-63
2023/03/02 07:21:47;;;;;;;98.30;21.93;;;;;;;0.19;100.00;147493.34;5026672;28;20041;-63
2023/03/02 07:24:12;;;;;;;168.50;25.90;;;;;;;0.11;100.00;147472.81;5021596;28;20033;-63
2023/03/02 07:26:37;;;;;;;115.60;22.77;;;;;;;0.04;100.00;147456.16;5034714;28;20036;-63
2023/03/02 07:29:05;;;;;;;80.63;19.47;;;;;;;0.12;100.00;147476.69;5025373;28;20472;-63
2023/03/02 07:31:31;;;;;;;95.60;22.80;;;;;;;0.13;100.00;147477.97;5025352;28;20025;-63
2023/03/02 07:33:56;;;;;;;178.23;27.40;;;;;;;0.10;100.00;147470.25;5028999;28;20449;-64
2023/03/02 07:36:22;;;;;;;159.73;27.50;;;;;;;0.22;100.00;147502.31;5031480;28;20053;-65
2023/03/02 07:38:47;;;;;;;96.60;23.57;;;;;;;0.34;100.00;147530.56;5033447;28;20465;-63
2023/03/02 07:41:15;;;;;;;98.23;22.70;;;;;;;0.32;100.00;147526.72;5024945;28;20084;-63
2023/03/02 07:43:40;;;;;;;51.57;14.30;;;;;;;0.19;100.00;147493.34;5030291;28;20276;-63
2023/03/02 07:46:06;;;;;;;86.97;20.00;;;;;;;0.12;100.00;147475.38;5021173;28;20701;-62
2023/03/02 07:48:32;;;;;;;77.23;18.97;;;;;;;0.11;100.00;147474.09;5025924;28;20025;-62
2023/03/02 07:51:02;;;;;;;103.63;21.97;;;;;;;0.14;100.00;147480.53;5021676;28;20560;-63
2023/03/02 07:53:28;;;;;;;45.37;12.90;;;;;;;0.19;100.00;147494.63;5031992;28;20047;-63
2023/03/02 07:55:53;;;;;;;69.67;18.77;;;;;;;0.24;100.00;147506.16;5032150;28;20041;-63
2023/03/02 07:58:19;;;;;;;78.30;19.37;;;;;;;0.32;100.00;147525.44;5025931;28;20416;-63
2023/03/02 08:00:44;;;;;;;63.50;19.67;;;;;;;0.44;100.00;147557.53;5013270;28;20481;-63
2023/03/02 08:03:10;;;;;;;118.70;23.60;;;;;;;0.52;100.00;147578.06;5016345;28;20021;-62
2023/03/02 08:05:35;;;;;;;88.90;23.30;;;;;;;0.65;100.00;147608.88;5029421;28;20064;-62
2023/03/02 08:08:00;;;;;;;66.93;17.33;;;;;;;0.69;100.00;147620.41;5021540;28;20013;-62
2023/03/02 08:10:26;;;;;;;83.43;21.83;;;;;;;0.68;100.00;147616.56;5024110;28;20037;-63
2023/03/02 08:12:51;;;;;;;101.80;22.90;;;;;;;0.80;100.00;147647.38;5022249;28;20025;-62
2023/03/02 08:15:17;;;;;;;57.47;18.47;;;;;;;0.68;100.00;147616.56;5026172;28;20115;-64
2023/03/02 08:17:43;;;;;;;35.13;12.03;;;;;;;0.73;100.00;147629.44;5024208;28;20382;-62
2023/03/02 08:20:09;;;;;;;43.83;13.97;;;;;;;0.73;100.00;147629.44;5022580;28;20041;-62
2023/03/02 08:22:35;;;;;;;43.43;16.17;;;;;;;0.72;100.00;147626.81;5021876;28;20037;-62
2023/03/02 08:25:00;;;;;;;54.73;19.10;;;;;;;0.84;100.00;147657.63;5025128;28;20487;-63
2023/03/02 08:27:26;;;;;;;44.60;15.17;;;;;;;0.84;100.00;147658.91;5028687;28;20029;-62
2023/03/02 08:29:53;;;;;;;48.30;17.10;;;;;;;0.84;100.00;147657.63;5027472;28;20034;-62
2023/03/02 08:32:18;;;;;;;29.23;10.93;;;;;;;0.87;100.00;147665.38;5016608;28;20033;-63
2023/03/02 08:34:44;;;;;;;51.33;17.60;;;;;;;0.90;100.00;147673.06;5024102;28;20022;-62
2023/03/02 08:37:09;;;;;;;92.73;22.03;;;;;;;0.87;100.00;147666.66;5027159;28;20053;-63
2023/03/02 08:39:34;;;;;;;79.77;23.30;;;;;;;1.00;100.00;147698.75;5021871;28;20060;-63
2023/03/02 08:42:00;;;;;;;72.80;22.90;;;;;;;1.16;100.00;147739.84;5023444;28;20065;-63
2023/03/02 08:44:25;;;;;;;54.80;18.13;;;;;;;1.12;100.00;147729.56;5025160;28;20033;-63
2023/03/02 08:46:51;;;;;;;63.13;19.53;;;;;;;1.02;100.00;147703.88;5022297;28;20033;-63
2023/03/02 08:49:18;;;;;;;60.90;17.53;;;;;;;1.04;100.00;147709.00;5029432;28;20033;-63
2023/03/02 08:51:44;;;;;;;46.87;17.47;;;;;;;1.08;100.00;147719.28;5021094;28;20033;-64
2023/03/02 08:54:11;;;;;;;44.53;15.67;;;;;;;1.27;100.00;147766.81;5027241;28;20515;-63
2023/03/02 08:56:38;;;;;;;54.60;17.80;;;;;;;1.30;100.00;147773.22;5013915;28;20470;-63
2023/03/02 08:59:09;;;;;;;47.57;15.90;;;;;;;1.34;100.00;147783.53;5011852;28;20045;-63
2023/03/02 09:01:35;;;;;;;;;;;;;;;1.57;100.00;147842.59;5031248;28;20036;-63
2023/03/02 09:04:02;;;;;;;19.50;9.20;;;;;;;1.39;100.00;147796.38;5030181;28;20277;-64
2023/03/02 09:06:29;;;;;;;33.10;13.57;;;;;;;1.32;100.00;147779.66;5029864;28;20083;-64
2023/03/02 09:08:56;;;;;;;35.43;13.93;;;;;;;1.45;100.00;147813.09;5027611;28;20469;-64
2023/03/02 09:11:21;;;;;;;47.30;18.37;;;;;;;1.59;100.00;147847.78;5027575;28;20025;-63
2023/03/02 09:13:47;;;;;;;56.53;19.90;;;;;;;1.62;100.00;147855.47;5022755;28;20381;-63
2023/03/02 09:16:13;;;;;;;65.67;21.73;;;;;;;1.71;100.00;147877.31;5017096;28;20025;-62
2023/03/02 09:18:39;;;;;;;57.47;20.57;;;;;;;1.81;100.00;147901.69;5029088;28;20491;-62
2023/03/02 09:21:05;;;;;;;54.97;19.97;;;;;;;1.87;100.00;147917.16;5026788;28;20507;-61
2023/03/02 09:23:32;;;;;;;41.73;16.10;;;;;;;1.96;100.00;147940.31;5021363;28;20061;-63
2023/03/02 09:25:57;;;;;;;35.60;15.60;;;;;;;1.82;100.00;147904.28;5023301;28;20029;-61
2023/03/02 09:28:23;;;;;;;37.50;15.17;;;;;;;1.75;100.00;147887.59;5018661;28;20037;-61
2023/03/02 09:31:00;;;;;;;37.90;14.27;;;;;;;1.68;100.00;147869.56;5014525;28;20041;-62
2023/03/02 09:33:26;;;;;;;44.93;18.40;;;;;;;1.67;100.00;147868.28;5013156;28;20014;-63
2023/03/02 09:35:51;;;;;;;47.67;18.13;;;;;;;1.94;100.00;147935.13;5022022;28;20496;-62
2023/03/02 09:38:17;;;;;;;38.97;16.87;;;;;;;2.11;100.00;147978.84;5019302;28;20427;-62
2023/03/02 09:40:57;;;;;;;43.27;17.23;;;;;;;2.29;100.00;148025.09;5015744;28;20030;-62
2023/03/02 09:43:41;;;;;;;46.10;17.23;;;;;;;2.35;100.00;148040.56;5026244;28;20033;-62
2023/03/02 09:46:26;;;;;;;37.23;14.87;;;;;;;2.16;100.00;147991.69;5026287;28;20056;-63
2023/03/02 09:49:00;;;;;;;51.63;18.63;;;;;;;2.27;100.00;148018.69;5024928;28;20033;-63
2023/03/02 09:51:30;;;;;;;36.40;15.93;;;;;;;2.43;100.00;148058.59;5017314;28;20164;-62
2023/03/02 09:54:16;;;;;;;45.27;16.43;;;;;;;2.32;100.00;148032.84;5019756;28;20076;-62
2023/03/02 09:56:48;;;;;;;40.77;17.70;;;;;;;2.35;100.00;148040.56;5020441;28;20030;-62
2023/03/02 09:59:20;;;;;;;44.77;17.50;;;;;;;2.25;100.00;148014.84;5021728;28;20037;-63
2023/03/02 10:01:51;;;;;;;;;;;;;;;2.41;100.00;148054.69;5017165;28;20442;-63
2023/03/02 10:04:28;;;;;;;29.40;11.23;;;;;;;2.64;100.00;148112.56;5030089;28;20316;-62
2023/03/02 10:06:57;;;;;;;36.00;15.33;;;;;;;2.56;100.00;148093.28;5016584;28;20493;-62
2023/03/02 10:09:22;;;;;;;45.30;18.07;;;;;;;2.58;100.00;148098.44;5011335;28;20163;-62
2023/03/02 10:11:56;;;;;;;36.23;17.03;;;;;;;2.62;100.00;148107.44;5011273;28;20058;-64
2023/03/02 10:14:51;;;;;;;34.93;15.80;;;;;;;2.77;100.00;148144.72;5023707;28;20029;-62
2023/03/02 10:17:29;;;;;;;38.13;15.43;;;;;;;2.77;100.00;148146.00;5008323;28;20034;-63
2023/03/02 10:20:04;;;;;;;38.23;15.30;;;;;;;2.82;100.00;148158.88;5028543;28;20029;-62
2023/03/02 10:22:47;;;;;;;39.00;16.63;;;;;;;3.12;100.00;148234.78;5029192;28;20079;-63
2023/03/02 10:25:35;;;;;;;37.07;16.40;;;;;;;3.16;100.00;148243.81;5029755;28;20095;-62
2023/03/02 10:28:22;;;;;;;39.33;16.30;;;;;;;3.18;100.00;148248.94;5020787;28;20125;-63
2023/03/02 10:30:59;;;;;;;39.27;16.43;;;;;;;3.39;100.00;148303.00;5027827;28;20128;-62
2023/03/02 10:33:26;;;;;;;37.97;17.03;;;;;;;3.33;100.00;148287.53;5026767;28;20021;-63
2023/03/02 10:35:52;;;;;;;38.47;16.83;;;;;;;3.37;100.00;148297.81;5027969;28;20374;-63
2023/03/02 10:38:23;;;;;;;40.20;17.37;;;;;;;3.48;100.00;148324.84;5025715;28;20076;-63
2023/03/02 10:40:52;;;;;;;43.63;18.40;;;;;;;3.78;100.00;148400.84;5030508;28;20033;-63
2023/03/02 10:43:24;;;;;;;39.90;18.13;;;;;;;3.80;100.00;148405.97;5030228;28;20042;-64
2023/03/02 10:46:00;;;;;;;37.83;17.33;;;;;;;3.70;100.00;148380.22;5021005;28;20068;-63
2023/03/02 10:48:26;;;;;;;35.10;16.20;;;;;;;3.63;100.00;148362.19;5015809;28;20035;-63
2023/03/02 10:50:53;;;;;;;37.60;17.10;;;;;;;3.63;100.00;148362.19;5021364;28;20037;-64
2023/03/02 10:53:19;;;;;;;40.07;17.67;;;;;;;3.53;100.00;148337.75;5019366;28;20048;-63
2023/03/02 10:55:47;;;;;;;37.87;15.57;;;;;;;3.55;100.00;148342.91;5015888;28;20021;-64
2023/03/02 10:58:24;;;;;;;38.17;17.17;;;;;;;3.55;100.00;148342.91;5014102;28;20478;-63
2023/03/02 11:00:57;;;;;;;38.33;17.40;;;;;;;3.67;100.00;148372.50;5032097;28;20144;-65
2023/03/02 11:03:23;;;;;;;39.20;18.03;;;;;;;3.68;100.00;148375.09;5032157;28;20025;-63
2023/03/02 11:05:49;;;;;;;42.17;17.83;;;;;;;3.83;100.00;148413.69;5026723;28;20104;-64
2023/03/02 11:08:20;;;;;;;35.20;16.10;;;;;;;3.90;100.00;148431.75;5015844;28;20076;-64